Time;durP1;ratioP1;P1;durP2;ratioP2;P2;SDS_P1;SDS_P2;PMS_P1;PMS_P2;Temp;Humidity;BMP_temperature;BMP_pressure;BME280_temperature;BME280_humidity;BME280_pressure;Samples;Min_cycle;Max_cycle;Signal;HPM_P1;HPM_P2
2023/08/16 00:00:48;;;;;;;4.20;2.40;;;26.30;99.10;;;;;;5053088;28;20584;-84
2023/08/16 00:03:17;;;;;;;3.53;2.17;;;26.30;99.00;;;;;;5043934;28;20195;-84
2023/08/16 00:05:52;;;;;;;2.67;1.90;;;26.30;99.10;;;;;;5054124;28;20808;-84
2023/08/16 00:08:28;;;;;;;2.87;2.60;;;26.30;99.10;;;;;;5046548;28;20513;-84
2023/08/16 00:11:25;;;;;;;2.67;2.20;;;26.30;99.00;;;;;;5052402;28;20189;-84
2023/08/16 00:13:51;;;;;;;2.27;2.07;;;26.30;99.00;;;;;;5045521;28;20184;-84
2023/08/16 00:16:26;;;;;;;2.73;2.10;;;26.30;99.00;;;;;;5060168;28;20183;-84
2023/08/16 00:18:52;;;;;;;2.97;2.13;;;26.20;99.00;;;;;;5026505;28;20220;-84
2023/08/16 00:21:37;;;;;;;2.83;2.30;;;26.30;99.00;;;;;;5022665;28;20246;-84
2023/08/16 00:24:08;;;;;;;2.50;2.10;;;26.20;99.00;;;;;;5024622;28;20640;-84
2023/08/16 00:26:40;;;;;;;3.67;2.63;;;26.30;99.00;;;;;;5017224;28;20451;-84
2023/08/16 00:29:06;;;;;;;2.57;2.20;;;26.30;99.00;;;;;;5025964;28;20212;-84
2023/08/16 00:31:37;;;;;;;3.00;2.30;;;26.30;98.90;;;;;;5021264;28;20196;-84
2023/08/16 00:34:21;;;;;;;2.63;2.20;;;26.20;98.90;;;;;;5029658;28;20203;-84
2023/08/16 00:36:58;;;;;;;3.30;2.10;;;26.20;98.90;;;;;;5028920;28;20200;-84
2023/08/16 00:39:24;;;;;;;3.53;2.40;;;26.30;99.00;;;;;;5029677;28;20222;-84
2023/08/16 00:44:59;;;;;;;3.50;2.10;;;26.30;98.80;;;;;;5027557;28;20429;-84
2023/08/16 00:47:25;;;;;;;4.17;2.50;;;26.30;98.80;;;;;;5032313;28;20192;-84
2023/08/16 00:52:38;;;;;;;3.00;2.17;;;26.20;98.80;;;;;;5032856;28;20217;-84
2023/08/16 00:55:12;;;;;;;2.20;2.00;;;26.20;98.90;;;;;;5045546;28;20497;-84
2023/08/16 00:57:56;;;;;;;3.30;2.10;;;26.20;98.90;;;;;;5045424;28;20571;-84
2023/08/16 01:00:23;;;;;;;2.47;2.17;;;26.20;98.90;;;;;;5047001;28;20184;-84
2023/08/16 01:02:49;;;;;;;3.17;2.37;;;26.20;98.90;;;;;;5053356;28;20180;-84
2023/08/16 01:08:38;;;;;;;2.40;2.10;;;26.20;98.90;;;;;;5043471;28;20211;-84
2023/08/16 01:11:29;;;;;;;4.03;2.40;;;26.20;98.90;;;;;;5040665;28;20282;-84
2023/08/16 01:14:02;;;;;;;2.83;2.10;;;26.20;98.90;;;;;;5036825;28;20193;-84
2023/08/16 01:16:45;;;;;;;2.00;1.77;;;26.20;98.80;;;;;;5044693;28;20184;-84
2023/08/16 01:19:35;;;;;;;3.17;2.33;;;26.20;98.90;;;;;;5044334;28;20191;-84
2023/08/16 01:22:37;;;;;;;2.27;2.03;;;26.20;98.90;;;;;;5048809;28;20187;-84
2023/08/16 01:25:11;;;;;;;2.57;2.10;;;26.20;98.90;;;;;;5044095;28;20409;-84
2023/08/16 01:27:51;;;;;;;2.50;1.97;;;26.20;98.80;;;;;;5040193;28;20540;-84
2023/08/16 01:30:27;;;;;;;2.20;2.00;;;26.20;98.80;;;;;;5043769;28;20164;-84
2023/08/16 01:32:53;;;;;;;3.03;2.03;;;26.20;98.90;;;;;;5044476;28;20270;-84
2023/08/16 01:38:02;;;;;;;2.67;1.97;;;26.10;98.90;;;;;;5049764;28;20224;-6
2023/08/16 01:41:18;;;;;;;2.23;2.03;;;26.10;98.90;;;;;;5056773;28;20222;-6
2023/08/16 01:43:59;;;;;;;2.67;2.00;;;26.20;98.90;;;;;;4999138;28;20197;-6
2023/08/16 01:46:48;;;;;;;2.97;2.10;;;26.10;98.80;;;;;;5041356;28;20172;-6
2023/08/16 01:49:20;;;;;;;2.87;2.10;;;26.10;98.80;;;;;;5041026;28;20168;-6
2023/08/16 01:51:46;;;;;;;2.20;2.00;;;26.10;98.80;;;;;;5056135;28;20527;-6
2023/08/16 01:54:20;;;;;;;2.20;2.00;;;26.10;98.80;;;;;;5040580;28;20168;-6
2023/08/16 02:00:15;;;;;;;3.00;2.30;;;26.10;98.90;;;;;;5042891;28;20261;-6
2023/08/16 02:02:41;;;;;;;2.40;2.10;;;26.10;98.90;;;;;;5060921;28;20168;-6
2023/08/16 02:05:19;;;;;;;2.30;2.07;;;26.10;98.90;;;;;;5060305;28;20172;-6
2023/08/16 02:07:51;;;;;;;2.73;1.87;;;26.10;98.90;;;;;;5059636;28;20229;-6
2023/08/16 02:10:16;;;;;;;2.10;1.90;;;26.10;98.80;;;;;;5060131;28;20650;-6
2023/08/16 02:12:51;;;;;;;2.47;2.13;;;26.00;98.90;;;;;;5076234;28;20200;-6
2023/08/16 02:15:17;;;;;;;2.90;2.23;;;26.00;98.90;;;;;;5046397;28;20223;-6
2023/08/16 02:17:55;;;;;;;2.47;1.70;;;26.10;98.90;;;;;;5040522;28;20177;-6
2023/08/16 02:20:33;;;;;;;3.27;2.13;;;26.10;98.90;;;;;;5069869;28;20599;-6
2023/08/16 02:23:01;;;;;;;3.20;2.10;;;26.00;98.80;;;;;;5060362;28;20175;-6
2023/08/16 02:25:36;;;;;;;2.80;2.10;;;26.10;98.80;;;;;;5044111;28;20268;-6
2023/08/16 02:28:20;;;;;;;2.50;1.93;;;26.00;98.80;;;;;;5060231;28;20214;-6
2023/08/16 02:30:48;;;;;;;2.40;2.20;;;26.00;99.00;;;;;;5061730;28;20176;-6
2023/08/16 02:33:48;;;;;;;2.67;1.90;;;25.90;99.00;;;;;;5079738;28;20212;-6
2023/08/16 02:36:54;;;;;;;3.67;2.10;;;25.90;99.10;;;;;;5076382;28;20177;-6
2023/08/16 02:39:25;;;;;;;3.30;2.13;;;25.90;99.20;;;;;;5044391;28;20176;-6
2023/08/16 02:41:56;;;;;;;2.40;1.93;;;25.90;99.10;;;;;;5067082;28;20179;-6
2023/08/16 02:44:28;;;;;;;3.77;2.23;;;25.90;99.10;;;;;;5063281;28;20251;-6
2023/08/16 02:47:12;;;;;;;4.10;1.80;;;25.90;99.00;;;;;;5063234;28;20179;-6
2023/08/16 02:49:44;;;;;;;2.20;2.00;;;25.90;99.00;;;;;;5062967;28;20168;-6
2023/08/16 02:52:12;;;;;;;3.10;2.00;;;25.90;98.90;;;;;;5062460;28;20195;-6
2023/08/16 02:54:47;;;;;;;2.23;2.00;;;26.00;98.90;;;;;;5076464;28;20196;-6
2023/08/16 02:57:18;;;;;;;2.73;2.10;;;25.90;98.90;;;;;;5061109;28;20451;-6
2023/08/16 02:59:47;;;;;;;2.40;1.87;;;25.90;98.90;;;;;;5063264;28;20188;-6
2023/08/16 03:02:19;;;;;;;2.37;1.93;;;25.90;98.90;;;;;;5046030;28;20169;-6
2023/08/16 03:05:03;;;;;;;3.27;1.80;;;25.90;98.80;;;;;;5059481;28;20200;-6
2023/08/16 03:07:42;;;;;;;3.07;2.00;;;25.90;98.80;;;;;;5043237;28;20526;-6
2023/08/16 03:10:16;;;;;;;2.83;2.20;;;25.90;98.80;;;;;;5045123;28;20187;-6
2023/08/16 03:13:05;;;;;;;2.40;2.20;;;25.90;98.80;;;;;;5063124;28;20287;-6
2023/08/16 03:15:34;;;;;;;2.63;2.03;;;25.90;98.80;;;;;;5063703;28;20157;-6
2023/08/16 03:18:18;;;;;;;2.20;1.97;;;25.90;98.80;;;;;;5055628;28;20177;-6
2023/08/16 03:20:47;;;;;;;2.20;2.00;;;25.90;98.80;;;;;;5047032;28;20165;-6
2023/08/16 03:23:31;;;;;;;3.30;1.90;;;25.90;98.80;;;;;;5062508;28;20191;-6
2023/08/16 03:26:18;;;;;;;2.47;1.90;;;25.90;98.80;;;;;;5062809;28;20172;-6
2023/08/16 03:28:43;;;;;;;3.13;1.90;;;25.80;98.70;;;;;;5051863;28;20476;-6
2023/08/16 03:31:18;;;;;;;2.33;2.00;;;25.80;98.70;;;;;;5048554;28;20557;-6
2023/08/16 03:33:56;;;;;;;2.20;2.00;;;25.80;98.70;;;;;;5061777;28;20179;-6
2023/08/16 03:36:29;;;;;;;2.70;1.90;;;25.80;98.70;;;;;;5062018;28;20180;-6
2023/08/16 03:39:05;;;;;;;2.33;2.10;;;25.80;98.70;;;;;;5058842;28;20760;-6
2023/08/16 03:41:37;;;;;;;3.07;1.83;;;25.80;98.60;;;;;;5043534;28;20168;-6
2023/08/16 03:44:06;;;;;;;2.33;2.13;;;25.80;98.60;;;;;;5068293;28;20195;-6
2023/08/16 03:46:53;;;;;;;2.93;1.93;;;25.80;98.70;;;;;;5062809;28;20256;-6
2023/08/16 03:49:37;;;;;;;3.07;1.93;;;25.80;98.60;;;;;;5063023;28;20160;-6
2023/08/16 03:52:09;;;;;;;2.17;1.90;;;25.80;98.60;;;;;;5056341;28;20239;-6
2023/08/16 03:54:40;;;;;;;2.23;1.80;;;25.70;98.80;;;;;;5062366;28;20152;-6
2023/08/16 03:57:11;;;;;;;3.07;2.10;;;25.70;98.60;;;;;;5060778;28;20180;-6
2023/08/16 04:00:15;;;;;;;2.20;1.93;;;25.70;98.60;;;;;;5062819;28;20152;-6
2023/08/16 04:02:45;;;;;;;2.23;2.03;;;25.70;98.60;;;;;;5062328;28;20735;-6
2023/08/16 04:05:23;;;;;;;5.57;2.37;;;25.70;98.60;;;;;;5059564;28;20191;-6
2023/08/16 04:07:51;;;;;;;2.97;2.33;;;25.70;98.60;;;;;;5062472;28;20199;-6
2023/08/16 04:10:24;;;;;;;3.73;2.40;;;25.70;98.70;;;;;;5060618;28;20187;-6
2023/08/16 04:12:50;;;;;;;4.30;2.37;;;25.70;98.70;;;;;;5074147;28;20223;-6
2023/08/16 04:15:36;;;;;;;4.43;2.73;;;25.60;98.70;;;;;;5059407;28;20738;-6
2023/08/16 04:18:05;;;;;;;6.17;3.13;;;25.70;98.70;;;;;;5058026;28;20148;-6
2023/08/16 04:20:32;;;;;;;4.37;2.50;;;25.60;98.60;;;;;;5039626;28;20180;-6
2023/08/16 04:23:33;;;;;;;3.33;2.67;;;25.70;98.70;;;;;;5041708;28;20709;-6
2023/08/16 04:25:59;;;;;;;4.73;2.40;;;25.60;98.70;;;;;;5054358;28;20234;-6
2023/08/16 04:28:31;;;;;;;7.17;3.00;;;25.60;98.70;;;;;;5060469;28;20704;-6
2023/08/16 04:31:12;;;;;;;5.83;2.73;;;25.60;98.70;;;;;;5068571;28;20168;-6
2023/08/16 04:33:52;;;;;;;6.10;2.70;;;25.60;98.70;;;;;;5069003;28;20228;-6
2023/08/16 04:36:36;;;;;;;5.13;2.70;;;25.50;98.70;;;;;;5040498;28;20173;-6
2023/08/16 04:39:02;;;;;;;5.53;2.90;;;25.50;98.80;;;;;;5066876;28;20716;-6
2023/08/16 04:41:28;;;;;;;4.57;2.80;;;25.50;98.80;;;;;;5060309;28;20251;-6
2023/08/16 04:43:56;;;;;;;5.13;2.53;;;25.50;98.80;;;;;;5057730;28;20254;-6
2023/08/16 04:46:22;;;;;;;6.37;2.90;;;25.50;98.70;;;;;;5059395;28;20582;-6
2023/08/16 04:49:06;;;;;;;4.03;2.70;;;25.50;98.60;;;;;;5071061;28;20165;-6
2023/08/16 04:51:35;;;;;;;3.27;2.43;;;25.50;98.70;;;;;;5059421;28;20164;-6
2023/08/16 04:54:01;;;;;;;4.67;2.67;;;25.50;98.70;;;;;;5056782;28;20172;-6
2023/08/16 04:56:27;;;;;;;5.60;2.60;;;25.50;98.70;;;;;;5060201;28;20176;-6
2023/08/16 04:58:59;;;;;;;4.60;2.60;;;25.50;98.60;;;;;;5057205;28;20172;-6
2023/08/16 05:01:27;;;;;;;4.03;2.47;;;25.40;98.60;;;;;;5069742;22;20290;-5
2023/08/16 05:04:14;;;;;;;4.00;2.43;;;25.40;98.60;;;;;;5090340;28;20190;-6
2023/08/16 05:06:46;;;;;;;6.00;2.50;;;25.40;98.70;;;;;;5087226;28;20167;-6
2023/08/16 05:09:22;;;;;;;4.93;2.77;;;25.50;98.60;;;;;;5094430;28;20699;-6
2023/08/16 05:11:48;;;;;;;3.63;2.40;;;25.40;98.60;;;;;;5098337;28;20243;-6
2023/08/16 05:14:23;;;;;;;4.53;2.80;;;25.40;98.60;;;;;;5081941;28;20167;-6
2023/08/16 05:16:51;;;;;;;4.13;2.30;;;25.40;98.60;;;;;;5079208;28;20179;-6
2023/08/16 05:19:23;;;;;;;4.00;2.40;;;25.40;98.50;;;;;;5071172;28;20179;-6
2023/08/16 05:21:55;;;;;;;3.53;2.40;;;25.40;98.50;;;;;;5098059;28;20175;-6
2023/08/16 05:24:26;;;;;;;3.17;2.47;;;25.40;98.60;;;;;;5098670;28;20186;-6
2023/08/16 05:27:12;;;;;;;3.73;2.67;;;25.40;98.60;;;;;;5077377;28;20171;-6
2023/08/16 05:29:41;;;;;;;3.57;2.63;;;25.40;98.60;;;;;;5076595;28;20219;-6
2023/08/16 05:32:22;;;;;;;4.90;2.70;;;25.40;98.60;;;;;;5060305;28;20211;-6
2023/08/16 05:34:52;;;;;;;3.37;2.57;;;25.40;98.60;;;;;;5061897;28;20175;-6
2023/08/16 05:37:33;;;;;;;4.77;2.60;;;25.40;98.60;;;;;;5092582;28;20168;-6
2023/08/16 05:40:11;;;;;;;3.07;2.43;;;25.40;98.50;;;;;;5061717;28;20201;-6
2023/08/16 05:42:44;;;;;;;6.40;2.80;;;25.40;98.60;;;;;;5059666;28;20167;-7
2023/08/16 05:48:04;;;;;;;3.93;2.80;;;25.30;98.60;;;;;;5077385;22;20322;-16
2023/08/16 05:50:36;;;;;;;2.87;2.50;;;25.40;98.70;;;;;;5063828;28;20651;-8
2023/08/16 05:53:03;;;;;;;4.37;2.50;;;25.40;98.50;;;;;;5065851;28;20203;-8
2023/08/16 05:55:32;;;;;;;4.90;2.60;;;25.30;98.60;;;;;;5073304;28;20175;-8
2023/08/16 05:58:08;;;;;;;4.10;2.47;;;25.40;98.50;;;;;;5060582;28;20168;-8
2023/08/16 06:00:36;;;;;;;3.53;2.67;;;25.40;98.50;;;;;;5070373;28;20213;-8
2023/08/16 06:03:15;;;;;;;3.87;2.53;;;25.40;98.50;;;;;;5066398;28;20464;-8
2023/08/16 06:05:47;;;;;;;4.83;2.47;;;25.40;98.50;;;;;;5072969;28;20563;-8
2023/08/16 06:08:22;;;;;;;3.63;2.50;;;25.30;98.50;;;;;;5087922;28;20239;-8
2023/08/16 06:10:47;;;;;;;3.33;2.60;;;25.30;98.50;;;;;;5072376;28;20243;-8
2023/08/16 06:13:13;;;;;;;3.63;2.60;;;25.30;98.60;;;;;;5061976;28;20211;-8
2023/08/16 06:15:42;;;;;;;3.67;2.53;;;25.30;98.60;;;;;;5073158;28;20268;-8
2023/08/16 06:18:08;;;;;;;4.13;2.93;;;25.20;98.70;;;;;;5059823;28;20203;-8
2023/08/16 06:20:34;;;;;;;3.03;2.77;;;25.20;98.70;;;;;;5072844;28;20228;-8
2023/08/16 06:23:01;;;;;;;3.57;2.83;;;25.20;98.70;;;;;;5063724;28;20176;-8
2023/08/16 06:25:33;;;;;;;4.00;2.80;;;25.20;98.70;;;;;;5052151;28;20180;-8
2023/08/16 06:28:01;;;;;;;4.60;2.87;;;25.20;98.70;;;;;;5054475;28;20265;-8
2023/08/16 06:30:27;;;;;;;4.67;2.80;;;25.20;98.70;;;;;;5068235;28;20172;-8
2023/08/16 06:32:53;;;;;;;3.53;2.60;;;25.20;98.70;;;;;;5067680;28;20230;-8
2023/08/16 06:35:19;;;;;;;5.33;3.03;;;25.20;98.80;;;;;;5059343;28;20175;-8
2023/08/16 06:37:50;;;;;;;4.73;2.90;;;25.20;98.80;;;;;;5060644;28;20168;-8
2023/08/16 06:40:19;;;;;;;4.47;2.97;;;25.20;98.80;;;;;;5065056;28;20378;-8
2023/08/16 06:42:44;;;;;;;3.50;2.63;;;25.20;98.70;;;;;;5068842;28;20191;-8
2023/08/16 06:45:16;;;;;;;5.00;2.73;;;25.20;98.70;;;;;;5061098;28;20180;-8
2023/08/16 06:47:42;;;;;;;4.47;2.90;;;25.20;98.70;;;;;;5069956;28;20199;-8
2023/08/16 06:50:14;;;;;;;3.73;2.77;;;25.30;98.60;;;;;;5062035;28;20172;-8
2023/08/16 06:52:43;;;;;;;3.67;2.70;;;25.30;98.60;;;;;;5070704;28;20199;-8
2023/08/16 06:55:09;;;;;;;4.90;2.90;;;25.30;98.60;;;;;;5060845;28;20167;-8
2023/08/16 06:57:34;;;;;;;3.73;2.60;;;25.30;98.60;;;;;;5073520;28;20187;-8
2023/08/16 07:00:07;;;;;;;4.30;2.70;;;25.30;98.60;;;;;;5063953;28;20168;-8
2023/08/16 07:02:36;;;;;;;4.37;2.40;;;25.20;98.60;;;;;;5056736;28;20184;-8
2023/08/16 07:05:15;;;;;;;3.83;2.67;;;25.20;98.60;;;;;;5062452;28;20759;-8
2023/08/16 07:07:44;;;;;;;3.43;2.60;;;25.20;98.60;;;;;;5079855;28;20194;-8
2023/08/16 07:10:22;;;;;;;5.70;2.90;;;25.30;98.50;;;;;;5080897;28;20225;-8
2023/08/16 07:12:49;;;;;;;3.17;2.60;;;25.30;98.60;;;;;;5080056;28;20209;-8
2023/08/16 07:15:17;;;;;;;3.23;2.50;;;25.30;98.60;;;;;;5060879;28;20176;-8
2023/08/16 07:17:52;;;;;;;4.10;2.60;;;25.30;98.70;;;;;;5058799;28;20218;-8
2023/08/16 07:20:24;;;;;;;3.13;2.43;;;25.30;98.60;;;;;;5075536;28;20225;-8
2023/08/16 07:22:58;;;;;;;3.87;2.33;;;25.40;98.50;;;;;;5063049;28;20191;-8
2023/08/16 07:25:27;;;;;;;4.10;2.30;;;25.40;98.40;;;;;;5060399;28;20156;-8
2023/08/16 07:27:56;;;;;;;3.87;2.57;;;25.40;98.40;;;;;;5059172;28;20161;-8
2023/08/16 07:30:23;;;;;;;3.87;2.80;;;25.30;98.40;;;;;;5059522;28;20168;-8
2023/08/16 07:32:51;;;;;;;3.10;2.30;;;25.30;98.50;;;;;;5060347;28;20235;-8
2023/08/16 07:35:17;;;;;;;3.80;2.60;;;25.30;98.60;;;;;;5062635;28;20167;-8
2023/08/16 07:37:43;;;;;;;4.17;2.50;;;25.20;98.60;;;;;;5077789;28;20171;-8
2023/08/16 07:40:14;;;;;;;2.47;2.27;;;25.20;98.60;;;;;;5072191;28;20237;-8
2023/08/16 07:42:40;;;;;;;4.53;2.50;;;25.20;98.70;;;;;;5059087;28;20172;-8
2023/08/16 07:45:06;;;;;;;3.83;2.40;;;25.20;98.60;;;;;;5059709;28;20173;-8
2023/08/16 07:47:35;;;;;;;3.17;2.57;;;25.20;98.70;;;;;;5076132;28;20589;-8
2023/08/16 07:50:00;;;;;;;3.07;2.33;;;25.20;98.80;;;;;;5079650;28;20195;-8
2023/08/16 07:52:26;;;;;;;3.87;2.73;;;25.30;98.70;;;;;;5066475;28;20750;-8
2023/08/16 07:54:58;;;;;;;3.27;2.60;;;25.30;98.60;;;;;;5063506;28;20241;-8
2023/08/16 07:57:26;;;;;;;3.27;2.37;;;25.30;98.60;;;;;;5079610;28;20691;-8
2023/08/16 07:59:52;;;;;;;3.53;2.37;;;25.30;98.60;;;;;;5078909;28;20198;-8
2023/08/16 08:02:24;;;;;;;4.03;2.67;;;25.30;98.60;;;;;;5081247;22;20227;-8
2023/08/16 08:05:01;;;;;;;4.33;2.50;;;25.30;98.50;;;;;;5077406;28;20175;-8
2023/08/16 08:07:28;;;;;;;3.03;2.53;;;25.30;98.50;;;;;;5078146;28;20588;-8
2023/08/16 08:10:10;;;;;;;3.03;2.50;;;25.30;98.50;;;;;;5077752;28;20604;-8
2023/08/16 08:12:39;;;;;;;2.73;2.33;;;25.30;98.50;;;;;;5077369;28;20206;-8
2023/08/16 08:15:26;;;;;;;3.30;2.40;;;25.30;98.50;;;;;;5075690;28;20164;-8
2023/08/16 08:18:06;;;;;;;2.87;2.50;;;25.30;98.60;;;;;;5076138;28;20180;-8
2023/08/16 08:20:47;;;;;;;2.90;2.23;;;25.30;98.60;;;;;;5074488;28;20167;-8
2023/08/16 08:23:15;;;;;;;2.70;2.33;;;25.30;98.60;;;;;;5055336;28;20195;-8
2023/08/16 08:25:47;;;;;;;2.97;2.23;;;25.30;98.70;;;;;;5056225;28;20172;-8
2023/08/16 08:28:13;;;;;;;2.90;2.30;;;25.30;98.70;;;;;;5057661;28;20195;-8
2023/08/16 08:30:41;;;;;;;3.50;2.30;;;25.30;98.70;;;;;;5061454;28;20183;-8
2023/08/16 08:33:36;;;;;;;3.17;2.37;;;25.30;98.80;;;;;;5055631;28;20193;-8
2023/08/16 08:36:03;;;;;;;2.80;2.47;;;25.30;98.70;;;;;;5050843;28;20440;-8
2023/08/16 08:38:29;;;;;;;3.20;2.70;;;25.30;98.80;;;;;;5070897;28;20215;-8
2023/08/16 08:40:59;;;;;;;3.50;2.43;;;25.20;98.70;;;;;;5053717;28;20585;-8
2023/08/16 08:43:34;;;;;;;3.47;2.73;;;25.30;98.80;;;;;;5061291;28;20183;-8
2023/08/16 08:46:00;;;;;;;2.80;2.60;;;25.30;98.80;;;;;;5065896;28;20658;-8
2023/08/16 08:48:29;;;;;;;3.30;3.00;;;25.30;98.80;;;;;;5059289;28;20203;-8
2023/08/16 08:50:56;;;;;;;3.03;2.77;;;25.20;98.80;;;;;;5048161;28;20160;-8
2023/08/16 08:53:23;;;;;;;3.17;2.83;;;25.30;98.90;;;;;;5058938;28;20199;-8
2023/08/16 08:56:16;;;;;;;3.50;2.87;;;25.30;98.90;;;;;;5046651;28;20451;-8
2023/08/16 08:58:45;;;;;;;3.33;2.87;;;25.30;98.90;;;;;;5057756;28;20180;-8
2023/08/16 09:01:23;;;;;;;3.50;3.20;;;25.30;99.00;;;;;;5048388;28;20737;-8
2023/08/16 09:04:05;;;;;;;4.17;3.10;;;25.30;99.00;;;;;;5063832;28;20179;-8
2023/08/16 09:06:31;;;;;;;4.93;3.37;;;25.30;99.00;;;;;;5066696;28;20670;-8
2023/08/16 09:09:04;;;;;;;3.47;3.17;;;25.30;99.00;;;;;;5054309;28;20178;-8
2023/08/16 09:11:36;;;;;;;4.57;3.53;;;25.30;99.00;;;;;;5066134;28;20171;-8
2023/08/16 09:14:12;;;;;;;3.97;3.20;;;25.30;99.00;;;;;;5052095;28;20481;-7
2023/08/16 09:16:46;;;;;;;3.60;3.30;;;25.30;99.00;;;;;;5064198;28;20356;-7
2023/08/16 09:19:16;;;;;;;4.10;3.67;;;25.30;99.00;;;;;;5057799;28;20179;-7
2023/08/16 09:21:50;;;;;;;4.07;3.70;;;25.30;98.90;;;;;;5064665;28;20170;-7
2023/08/16 09:24:22;;;;;;;3.67;3.37;;;25.30;98.90;;;;;;5052495;28;20267;-7
2023/08/16 09:26:59;;;;;;;4.83;3.73;;;25.40;98.90;;;;;;5065279;28;20387;-7
2023/08/16 09:29:24;;;;;;;4.37;3.97;;;25.40;98.80;;;;;;5047565;28;20187;-7
2023/08/16 09:31:53;;;;;;;5.43;3.90;;;25.40;98.80;;;;;;5045626;28;20168;-7
2023/08/16 09:34:31;;;;;;;4.40;4.00;;;25.40;98.80;;;;;;5056213;28;20201;-7
2023/08/16 09:36:56;;;;;;;4.07;3.67;;;25.50;98.80;;;;;;5044553;28;20405;-7
2023/08/16 09:39:34;;;;;;;6.20;4.20;;;25.50;98.80;;;;;;5052979;28;20171;-7
2023/08/16 09:42:08;;;;;;;4.83;4.40;;;25.50;98.70;;;;;;5044485;28;20283;-7
2023/08/16 09:44:36;;;;;;;4.63;4.23;;;25.60;99.00;;;;;;5052244;28;20226;-7
2023/08/16 09:47:12;;;;;;;5.13;4.10;;;25.60;98.70;;;;;;5043895;28;20184;-7
2023/08/16 09:49:39;;;;;;;5.33;4.50;;;25.60;98.70;;;;;;5052200;28;20163;-7
2023/08/16 09:52:11;;;;;;;4.87;4.43;;;25.60;98.70;;;;;;5048185;28;20204;-7
2023/08/16 09:55:07;;;;;;;5.40;4.57;;;25.60;98.70;;;;;;5050444;28;20216;-7
2023/08/16 09:57:34;;;;;;;4.90;4.40;;;25.60;98.60;;;;;;5052098;28;20652;-7
2023/08/16 10:00:06;;;;;;;5.20;4.23;;;25.60;98.60;;;;;;5051829;28;20211;-7
2023/08/16 10:02:38;;;;;;;4.90;4.40;;;25.60;98.60;;;;;;5055868;28;20215;-7
2023/08/16 10:05:04;;;;;;;6.97;4.60;;;25.70;98.60;;;;;;5054847;28;20210;-7
2023/08/16 10:07:42;;;;;;;5.13;4.63;;;25.70;98.50;;;;;;5055446;28;20179;-7
2023/08/16 10:10:12;;;;;;;5.30;4.37;;;25.70;98.50;;;;;;5060852;28;20171;-7
2023/08/16 10:12:56;;;;;;;4.40;4.00;;;25.70;98.40;;;;;;5075395;28;20195;-7
2023/08/16 10:15:31;;;;;;;6.90;4.37;;;25.70;98.40;;;;;;5065699;28;20160;-7
2023/08/16 10:20:49;;;;;;;5.20;4.53;;;25.70;98.40;;;;;;5055518;28;20579;-7
2023/08/16 10:23:25;;;;;;;5.73;4.37;;;25.70;98.50;;;;;;5054651;28;20568;-7
2023/08/16 10:26:01;;;;;;;4.27;3.87;;;25.80;98.40;;;;;;5056625;28;20172;-7
2023/08/16 10:28:31;;;;;;;5.63;4.57;;;25.90;98.30;;;;;;5049501;28;20199;-7
2023/08/16 10:30:59;;;;;;;4.43;4.03;;;25.90;98.30;;;;;;5062012;28;20178;-7
2023/08/16 10:33:46;;;;;;;5.57;4.50;;;25.90;98.30;;;;;;5073474;28;20191;-7
2023/08/16 10:36:18;;;;;;;4.70;4.23;;;25.90;98.20;;;;;;5060211;28;20226;-7
2023/08/16 10:38:44;;;;;;;4.80;4.40;;;25.90;98.20;;;;;;5054603;28;20255;-7
2023/08/16 10:41:15;;;;;;;5.00;4.43;;;25.90;98.20;;;;;;5066645;28;20260;-7
2023/08/16 10:43:59;;;;;;;5.40;4.50;;;25.90;98.20;;;;;;5075278;28;20168;-7
2023/08/16 10:46:31;;;;;;;4.73;4.33;;;25.90;98.20;;;;;;5074211;28;20180;-7
2023/08/16 10:49:18;;;;;;;5.00;4.50;;;25.90;98.20;;;;;;5075394;28;20191;-7
2023/08/16 10:51:51;;;;;;;4.70;4.20;;;26.00;98.20;;;;;;5062671;28;20180;-7
2023/08/16 10:54:17;;;;;;;5.13;4.63;;;25.90;98.10;;;;;;5057773;28;20195;-7
2023/08/16 10:56:47;;;;;;;5.33;4.60;;;25.90;98.10;;;;;;5071426;28;20194;-7
2023/08/16 10:59:21;;;;;;;4.63;4.23;;;25.90;98.20;;;;;;5062488;28;20176;-7
2023/08/16 11:01:50;;;;;;;4.60;4.20;;;25.90;98.30;;;;;;5067765;28;20199;-7
2023/08/16 11:04:39;;;;;;;5.17;4.67;;;25.90;98.30;;;;;;5060947;28;20188;-7
2023/08/16 11:07:09;;;;;;;5.10;4.53;;;25.90;98.30;;;;;;5062458;28;20187;-7
2023/08/16 11:09:53;;;;;;;4.60;4.20;;;26.00;98.10;;;;;;5056633;28;20180;-7
2023/08/16 11:12:34;;;;;;;4.97;4.47;;;26.00;98.00;;;;;;5062709;28;20199;-7
2023/08/16 11:15:01;;;;;;;4.47;4.07;;;26.00;98.10;;;;;;5070569;28;20762;-7
2023/08/16 11:18:00;;;;;;;4.63;4.23;;;26.10;97.80;;;;;;5067489;28;20255;-7
2023/08/16 11:20:36;;;;;;;4.43;4.03;;;26.20;97.70;;;;;;5068818;28;20199;-7
2023/08/16 11:23:04;;;;;;;4.60;4.20;;;26.20;97.50;;;;;;5075962;28;20198;-7
2023/08/16 11:25:40;;;;;;;4.70;4.20;;;26.20;97.50;;;;;;5056332;28;20242;-7
2023/08/16 11:28:24;;;;;;;5.07;4.43;;;26.20;97.50;;;;;;5056322;28;20203;-7
2023/08/16 11:31:01;;;;;;;4.90;4.40;;;26.20;97.50;;;;;;5055910;28;20199;-7
2023/08/16 11:33:34;;;;;;;4.97;4.40;;;26.20;97.40;;;;;;5058313;28;20258;-7
2023/08/16 11:36:02;;;;;;;5.40;4.07;;;26.20;97.50;;;;;;5055933;28;20180;-7
2023/08/16 11:38:27;;;;;;;4.40;4.00;;;26.20;97.40;;;;;;5070096;28;20167;-7
2023/08/16 11:40:57;;;;;;;4.80;4.30;;;26.30;97.40;;;;;;5062488;28;20258;-7
2023/08/16 11:43:36;;;;;;;4.90;4.40;;;26.30;97.30;;;;;;5070206;28;20670;-7
2023/08/16 11:46:02;;;;;;;4.63;4.23;;;26.30;97.30;;;;;;5075847;28;20195;-7
2023/08/16 11:48:35;;;;;;;4.60;4.20;;;26.40;97.30;;;;;;5073089;28;20734;-7
2023/08/16 11:51:02;;;;;;;4.67;4.00;;;26.30;97.30;;;;;;5075839;28;20172;-7
2023/08/16 11:53:34;;;;;;;4.63;4.23;;;26.30;97.30;;;;;;5059913;28;20211;-7
2023/08/16 11:56:01;;;;;;;4.60;4.20;;;26.40;97.30;;;;;;5054978;28;20172;-7
2023/08/16 11:58:29;;;;;;;5.10;4.60;;;26.40;97.30;;;;;;5059341;28;20176;-7
2023/08/16 12:01:05;;;;;;;5.03;4.17;;;26.40;97.30;;;;;;5076330;28;20187;-7
2023/08/16 12:03:53;;;;;;;4.73;4.20;;;26.40;97.20;;;;;;5076317;28;20182;-7
2023/08/16 12:06:31;;;;;;;5.10;4.27;;;26.40;97.30;;;;;;5076113;28;20191;-7
2023/08/16 12:08:57;;;;;;;4.53;4.10;;;26.40;97.20;;;;;;5067135;28;20183;-7
2023/08/16 12:11:38;;;;;;;5.10;4.23;;;26.40;97.20;;;;;;5055507;28;20176;-7
2023/08/16 12:14:10;;;;;;;4.93;3.87;;;26.40;97.20;;;;;;5054330;28;20258;-7
2023/08/16 12:16:36;;;;;;;5.70;3.87;;;26.50;97.20;;;;;;5054668;28;20184;-7
2023/08/16 12:19:04;;;;;;;4.10;3.70;;;26.50;97.20;;;;;;5055744;28;20215;-7
2023/08/16 12:21:30;;;;;;;4.83;4.33;;;26.50;97.20;;;;;;5055757;28;20172;-7
2023/08/16 12:23:56;;;;;;;4.13;3.73;;;26.50;97.10;;;;;;5055733;28;20195;-7
2023/08/16 12:26:21;;;;;;;4.47;4.00;;;26.50;97.00;;;;;;5055817;28;20263;-7
2023/08/16 12:28:56;;;;;;;4.10;3.70;;;26.50;97.00;;;;;;5056322;28;20557;-7
2023/08/16 12:31:23;;;;;;;5.20;4.13;;;26.50;97.00;;;;;;5056972;28;20253;-7
2023/08/16 12:33:49;;;;;;;4.40;4.00;;;26.60;97.00;;;;;;5063889;28;20290;-7
2023/08/16 12:36:17;;;;;;;4.37;3.97;;;26.60;96.90;;;;;;5054789;28;20704;-7
2023/08/16 12:38:43;;;;;;;4.70;4.20;;;26.60;96.90;;;;;;5066009;28;20195;-7
2023/08/16 12:41:09;;;;;;;4.00;3.60;;;26.60;96.80;;;;;;5053315;28;20205;-7
2023/08/16 12:43:34;;;;;;;4.37;4.00;;;26.60;96.90;;;;;;5067283;28;20269;-7
2023/08/16 12:46:05;;;;;;;4.13;3.73;;;26.60;96.90;;;;;;5046365;28;20169;-7
2023/08/16 12:48:31;;;;;;;3.93;3.43;;;26.60;97.00;;;;;;5046336;28;20265;-7
2023/08/16 12:50:57;;;;;;;5.23;4.13;;;26.60;97.00;;;;;;5058361;28;20270;-7
2023/08/16 12:53:30;;;;;;;4.20;3.80;;;26.60;97.00;;;;;;5046600;28;20306;-7
2023/08/16 12:55:57;;;;;;;5.47;4.00;;;26.60;96.90;;;;;;5056527;28;20434;-7
2023/08/16 12:58:25;;;;;;;4.33;3.93;;;26.70;96.90;;;;;;5048105;28;20213;-7
2023/08/16 13:00:54;;;;;;;5.37;3.70;;;26.60;96.90;;;;;;5048781;28;20172;-7
2023/08/16 13:03:24;;;;;;;4.10;3.70;;;26.70;96.90;;;;;;5060576;28;20180;-7
2023/08/16 13:05:53;;;;;;;4.53;3.80;;;26.70;97.00;;;;;;5057619;28;20678;-7
2023/08/16 13:08:38;;;;;;;3.97;3.57;;;26.70;97.00;;;;;;5049977;28;20375;-7
2023/08/16 13:11:07;;;;;;;3.73;3.40;;;26.80;97.00;;;;;;5066454;28;20549;-7
2023/08/16 13:13:36;;;;;;;3.90;3.60;;;26.80;96.90;;;;;;5056472;28;20361;-7
2023/08/16 13:16:14;;;;;;;4.00;3.47;;;26.80;96.80;;;;;;5061528;28;20164;-7
2023/08/16 13:18:49;;;;;;;3.93;3.63;;;26.80;96.90;;;;;;5059675;28;20731;-7
2023/08/16 13:21:38;;;;;;;5.30;3.60;;;26.80;96.90;;;;;;5063933;28;20183;-7
2023/08/16 13:24:12;;;;;;;4.03;3.47;;;26.80;96.90;;;;;;5068641;28;20248;-7
2023/08/16 13:26:42;;;;;;;3.60;3.30;;;26.80;96.80;;;;;;5062925;28;20648;-7
2023/08/16 13:29:12;;;;;;;4.27;3.60;;;26.80;96.90;;;;;;5054253;28;20168;-7
2023/08/16 13:31:38;;;;;;;3.95;3.40;;;26.80;97.00;;;;;;5058220;28;20259;-7
2023/08/16 13:34:08;;;;;;;3.60;3.30;;;26.80;96.90;;;;;;5061513;28;20247;-7
2023/08/16 13:36:34;;;;;;;3.63;3.33;;;26.80;97.00;;;;;;5053850;28;20571;-7
2023/08/16 13:39:02;;;;;;;3.80;3.50;;;26.80;96.90;;;;;;5054287;28;20175;-7
2023/08/16 13:41:29;;;;;;;3.70;3.40;;;26.80;97.00;;;;;;5057699;28;20285;-7
2023/08/16 13:43:55;;;;;;;4.77;3.40;;;26.80;97.00;;;;;;5053622;28;20280;-7
2023/08/16 13:46:24;;;;;;;3.77;3.10;;;26.90;97.30;;;;;;5056717;28;20179;-7